Time;durP1;ratioP1;P1;durP2;ratioP2;P2;SDS_P1;SDS_P2;PMS_P1;PMS_P2;Temp;Humidity;BMP_temperature;BMP_pressure;BME280_temperature;BME280_humidity;BME280_pressure;Samples;Min_cycle;Max_cycle;Signal;HPM_P1;HPM_P2
2021/07/02 00:01:16;;;;;;;8.23;4.38;;;14.30;94.00;;;;;;5051269;28;20028;-66
2021/07/02 00:03:42;;;;;;;6.68;3.65;;;14.20;94.00;;;;;;5051676;28;20017;-65
2021/07/02 00:06:08;;;;;;;6.35;3.45;;;14.30;94.00;;;;;;5049736;28;20533;-65
2021/07/02 00:08:33;;;;;;;5.72;4.20;;;14.20;94.10;;;;;;5051444;28;20044;-65
2021/07/02 00:10:59;;;;;;;7.47;4.07;;;14.20;94.00;;;;;;5049885;28;20033;-65
2021/07/02 00:13:25;;;;;;;10.20;5.18;;;14.20;94.10;;;;;;5050548;28;20028;-65
2021/07/02 00:15:50;;;;;;;8.70;4.50;;;14.20;94.10;;;;;;5050909;28;20112;-65
2021/07/02 00:18:16;;;;;;;7.30;4.43;;;14.20;94.10;;;;;;5032505;28;20047;-65
2021/07/02 00:20:41;;;;;;;7.13;4.72;;;14.10;94.10;;;;;;5046902;28;20021;-65
2021/07/02 00:23:07;;;;;;;6.95;4.38;;;14.10;94.20;;;;;;5050500;28;20155;-65
2021/07/02 00:25:33;;;;;;;8.45;4.70;;;14.00;94.20;;;;;;5049675;28;20461;-65
2021/07/02 00:27:58;;;;;;;8.25;4.22;;;14.10;94.30;;;;;;5049830;28;20037;-65
2021/07/02 00:30:24;;;;;;;6.40;4.70;;;14.10;94.30;;;;;;5051245;28;20075;-65
2021/07/02 00:32:50;;;;;;;8.23;4.82;;;14.10;94.30;;;;;;5050760;28;20032;-65
2021/07/02 00:35:15;;;;;;;6.07;4.43;;;14.10;94.30;;;;;;5050124;28;20496;-65
2021/07/02 00:37:41;;;;;;;5.80;4.07;;;14.10;94.30;;;;;;5050494;28;20036;-65
2021/07/02 00:40:07;;;;;;;7.90;4.80;;;14.10;94.40;;;;;;5050020;28;20069;-65
2021/07/02 00:42:33;;;;;;;8.85;4.68;;;14.10;94.50;;;;;;5050741;28;20032;-65
2021/07/02 00:44:59;;;;;;;7.15;4.43;;;14.10;94.40;;;;;;5049678;28;20121;-65
2021/07/02 00:47:25;;;;;;;12.60;5.30;;;14.10;94.40;;;;;;5031942;28;20089;-65
2021/07/02 00:49:50;;;;;;;5.25;3.88;;;14.10;94.30;;;;;;5048989;28;20021;-65
2021/07/02 00:52:17;;;;;;;7.75;4.78;;;14.10;94.30;;;;;;5049193;28;20025;-65
2021/07/02 00:54:44;;;;;;;10.63;5.18;;;14.10;94.40;;;;;;5032578;28;20093;-65
2021/07/02 00:57:10;;;;;;;6.97;4.70;;;14.10;94.40;;;;;;5046528;28;20028;-65
2021/07/02 00:59:38;;;;;;;10.93;4.90;;;14.10;94.40;;;;;;5050455;28;20028;-65
2021/07/02 01:02:04;;;;;;;8.25;4.95;;;14.10;94.40;;;;;;5050277;28;20033;-65
2021/07/02 01:04:30;;;;;;;7.00;4.40;;;14.10;94.40;;;;;;5050306;28;20048;-65
2021/07/02 01:06:56;;;;;;;7.68;4.57;;;14.10;94.40;;;;;;5048198;28;20578;-65
2021/07/02 01:09:25;;;;;;;9.48;4.25;;;14.10;94.40;;;;;;5050179;28;20539;-65
2021/07/02 01:11:52;;;;;;;11.75;5.40;;;14.10;94.50;;;;;;5049360;28;20024;-65
2021/07/02 01:14:17;;;;;;;8.15;4.85;;;14.10;94.50;;;;;;5048973;28;20029;-65
2021/07/02 01:16:43;;;;;;;6.95;4.47;;;14.10;94.50;;;;;;5031924;28;20036;-65
2021/07/02 01:19:09;;;;;;;10.27;5.15;;;14.10;94.50;;;;;;5046520;28;20032;-65
2021/07/02 01:21:35;;;;;;;8.13;4.85;;;14.10;94.50;;;;;;5044786;28;20103;-65
2021/07/02 01:24:01;;;;;;;8.98;4.88;;;14.10;94.50;;;;;;5049144;28;20033;-65
2021/07/02 01:26:29;;;;;;;10.68;5.75;;;14.00;94.50;;;;;;5040180;28;20037;-65
2021/07/02 01:28:54;;;;;;;10.68;5.50;;;14.00;94.50;;;;;;5050023;28;20037;-65
2021/07/02 01:31:20;;;;;;;8.48;5.20;;;14.00;94.60;;;;;;5050295;28;20139;-65
2021/07/02 01:33:45;;;;;;;9.68;4.95;;;14.00;94.60;;;;;;5049610;28;20353;-65
2021/07/02 01:36:17;;;;;;;9.23;5.35;;;14.00;94.70;;;;;;5049641;28;20032;-65
2021/07/02 01:38:43;;;;;;;9.38;5.53;;;14.00;94.80;;;;;;5050129;28;20029;-65
2021/07/02 01:41:08;;;;;;;8.88;5.18;;;14.00;94.80;;;;;;5048865;28;20056;-65
2021/07/02 01:43:34;;;;;;;10.85;4.93;;;13.90;94.80;;;;;;5031814;28;20025;-65
2021/07/02 01:46:00;;;;;;;8.38;4.82;;;13.90;94.80;;;;;;5049565;28;20033;-65
2021/07/02 01:48:26;;;;;;;7.75;4.63;;;14.00;94.80;;;;;;5047647;28;20032;-65
2021/07/02 01:50:52;;;;;;;12.05;4.78;;;13.90;94.80;;;;;;5043891;28;20091;-65
2021/07/02 01:53:18;;;;;;;7.55;4.80;;;13.90;94.80;;;;;;5019362;28;20061;-65
2021/07/02 01:55:43;;;;;;;8.23;5.13;;;13.90;94.90;;;;;;5029481;28;20033;-65
2021/07/02 01:58:09;;;;;;;9.82;4.75;;;13.90;94.90;;;;;;5045957;28;20029;-65
2021/07/02 02:00:35;;;;;;;8.52;4.72;;;13.90;94.90;;;;;;5050148;28;20588;-65
2021/07/02 02:03:00;;;;;;;8.68;4.95;;;13.90;94.90;;;;;;5048901;28;20079;-65
2021/07/02 02:05:26;;;;;;;10.63;5.35;;;13.90;94.90;;;;;;5048551;28;20866;-65
2021/07/02 02:07:52;;;;;;;10.95;4.70;;;13.90;95.00;;;;;;5049947;28;20043;-65
2021/07/02 02:10:17;;;;;;;9.98;5.03;;;13.90;95.00;;;;;;5049494;28;20033;-66
2021/07/02 02:12:43;;;;;;;7.38;4.78;;;13.90;94.90;;;;;;5048155;28;20029;-65
2021/07/02 02:15:09;;;;;;;9.90;5.07;;;13.90;95.00;;;;;;5048694;28;20036;-65
2021/07/02 02:17:35;;;;;;;7.57;5.45;;;13.90;94.90;;;;;;5049689;28;20487;-66
2021/07/02 02:20:02;;;;;;;10.52;5.43;;;13.80;94.90;;;;;;5052407;28;20036;-66
2021/07/02 02:22:28;;;;;;;11.60;5.28;;;13.80;95.00;;;;;;5048197;28;20017;-65
2021/07/02 02:24:54;;;;;;;11.40;5.30;;;13.80;94.90;;;;;;5052629;28;20024;-65
2021/07/02 02:27:19;;;;;;;7.22;5.22;;;13.80;94.90;;;;;;5052602;28;20033;-65
2021/07/02 02:29:45;;;;;;;11.32;5.47;;;13.80;94.90;;;;;;5053589;28;20017;-65
2021/07/02 02:32:11;;;;;;;12.40;5.40;;;13.80;94.90;;;;;;5035003;28;20028;-65
2021/07/02 02:34:36;;;;;;;11.73;4.88;;;13.80;95.00;;;;;;5052713;28;20025;-65
2021/07/02 02:37:03;;;;;;;9.13;5.13;;;13.80;95.00;;;;;;5053638;28;20056;-65
2021/07/02 02:39:28;;;;;;;8.25;4.90;;;13.80;95.00;;;;;;5052636;28;20484;-65
2021/07/02 02:41:54;;;;;;;6.93;5.05;;;13.80;95.00;;;;;;5053131;28;20032;-65
2021/07/02 02:44:19;;;;;;;6.63;4.38;;;13.70;95.00;;;;;;5053327;28;20048;-65
2021/07/02 02:46:45;;;;;;;10.77;5.22;;;13.70;95.10;;;;;;5051851;28;20077;-65
2021/07/02 02:49:11;;;;;;;10.20;4.95;;;13.70;95.20;;;;;;5050552;28;20135;-65
2021/07/02 02:51:36;;;;;;;8.15;5.25;;;13.80;95.20;;;;;;5050098;28;20101;-65
2021/07/02 02:54:02;;;;;;;8.07;4.82;;;13.80;95.20;;;;;;5048293;28;20048;-65
2021/07/02 02:56:28;;;;;;;9.45;4.93;;;13.80;95.20;;;;;;5048887;28;20017;-65
2021/07/02 02:58:54;;;;;;;11.60;5.85;;;13.80;95.20;;;;;;5052393;28;20052;-65
2021/07/02 03:01:19;;;;;;;9.85;5.30;;;13.80;95.20;;;;;;5052021;28;20096;-65
2021/07/02 03:03:45;;;;;;;10.27;5.55;;;13.80;95.20;;;;;;5052501;28;20088;-65
2021/07/02 03:06:10;;;;;;;7.38;4.88;;;13.80;95.20;;;;;;5052362;28;20462;-65
2021/07/02 03:08:37;;;;;;;5.70;4.30;;;13.80;95.20;;;;;;5052071;28;20033;-65
2021/07/02 03:11:03;;;;;;;11.02;5.30;;;13.90;95.30;;;;;;5052094;28;20099;-65
2021/07/02 03:13:29;;;;;;;8.00;5.10;;;13.90;95.30;;;;;;5051651;28;20151;-65
2021/07/02 03:15:54;;;;;;;10.55;5.55;;;13.90;95.30;;;;;;5052134;28;20040;-65
2021/07/02 03:18:20;;;;;;;8.65;4.65;;;13.90;95.20;;;;;;5031589;28;20087;-65
2021/07/02 03:20:45;;;;;;;7.90;4.88;;;13.90;95.20;;;;;;5049628;28;20021;-65
2021/07/02 03:23:11;;;;;;;8.57;4.80;;;13.90;95.30;;;;;;5051138;28;20477;-65
2021/07/02 03:25:37;;;;;;;7.75;5.00;;;13.90;95.30;;;;;;5051562;28;20095;-65
2021/07/02 03:28:03;;;;;;;9.07;5.05;;;13.90;95.30;;;;;;5052064;28;20032;-65
2021/07/02 03:30:29;;;;;;;10.05;5.07;;;13.90;95.30;;;;;;5051762;28;20108;-65
2021/07/02 03:32:54;;;;;;;9.32;4.97;;;14.00;95.30;;;;;;5052316;28;20112;-65
2021/07/02 03:35:20;;;;;;;10.25;4.93;;;14.00;95.30;;;;;;5050216;28;20036;-65
2021/07/02 03:37:45;;;;;;;9.77;4.88;;;14.00;95.30;;;;;;5033870;28;20116;-65
2021/07/02 03:40:12;;;;;;;6.78;4.53;;;13.90;95.30;;;;;;5033354;28;20036;-66
2021/07/02 03:42:38;;;;;;;7.30;4.25;;;14.00;95.30;;;;;;5053263;28;20420;-66
2021/07/02 03:45:05;;;;;;;6.20;4.70;;;14.00;95.30;;;;;;5033642;28;20029;-66
2021/07/02 03:47:31;;;;;;;9.68;5.15;;;14.00;95.30;;;;;;5052299;28;20024;-66
2021/07/02 03:49:56;;;;;;;10.88;5.65;;;14.00;95.30;;;;;;5037978;28;20030;-66
2021/07/02 03:52:22;;;;;;;8.38;5.30;;;14.00;95.30;;;;;;5035469;28;20027;-66
2021/07/02 03:54:49;;;;;;;7.50;4.82;;;14.00;95.30;;;;;;5049813;28;20488;-66
2021/07/02 03:57:18;;;;;;;8.60;5.13;;;14.00;95.30;;;;;;5051930;28;20025;-65
2021/07/02 03:59:47;;;;;;;12.48;5.60;;;14.00;95.30;;;;;;5051791;28;20106;-68
2021/07/02 04:02:13;;;;;;;7.55;5.03;;;14.00;95.30;;;;;;5050980;28;20025;-65
2021/07/02 04:04:40;;;;;;;8.27;4.95;;;14.00;95.30;;;;;;5032442;28;20092;-65
2021/07/02 04:07:07;;;;;;;8.60;5.18;;;14.00;95.30;;;;;;5050936;28;20036;-65
2021/07/02 04:09:33;;;;;;;9.38;4.93;;;14.00;95.30;;;;;;5051559;28;20072;-67
2021/07/02 04:11:59;;;;;;;9.15;5.38;;;14.00;95.50;;;;;;5050840;28;20307;-65
2021/07/02 04:14:26;;;;;;;10.43;5.63;;;14.00;95.20;;;;;;5051187;28;20029;-65
2021/07/02 04:16:51;;;;;;;8.10;5.40;;;14.00;95.20;;;;;;5044231;28;20094;-65
2021/07/02 04:19:17;;;;;;;9.57;5.40;;;14.00;95.20;;;;;;5034039;28;20456;-65
2021/07/02 04:21:42;;;;;;;10.18;5.60;;;14.00;95.20;;;;;;5037404;28;20033;-67
2021/07/02 04:24:08;;;;;;;7.82;4.90;;;14.00;95.30;;;;;;5050477;28;20021;-68
2021/07/02 04:26:34;;;;;;;12.52;5.85;;;14.00;95.20;;;;;;5050672;28;20032;-65
2021/07/02 04:29:00;;;;;;;9.65;5.57;;;14.00;95.20;;;;;;5051975;28;20104;-65
2021/07/02 04:31:26;;;;;;;10.40;5.75;;;14.00;95.20;;;;;;5049767;28;20036;-65
2021/07/02 04:33:51;;;;;;;10.48;5.28;;;13.90;95.20;;;;;;5050726;28;20344;-66
2021/07/02 04:36:17;;;;;;;8.95;5.38;;;13.90;95.30;;;;;;5050138;28;20067;-65
2021/07/02 04:38:43;;;;;;;12.32;6.03;;;13.90;95.40;;;;;;5051579;28;20385;-66
2021/07/02 04:41:09;;;;;;;9.38;5.63;;;13.90;95.40;;;;;;5050300;28;20021;-66
2021/07/02 04:43:36;;;;;;;10.02;6.03;;;13.90;95.40;;;;;;5050607;28;20130;-63
2021/07/02 04:46:01;;;;;;;12.10;6.05;;;13.90;95.40;;;;;;5033216;28;20032;-64
2021/07/02 04:48:27;;;;;;;11.80;5.18;;;14.00;95.40;;;;;;5048407;28;20037;-65
2021/07/02 04:50:53;;;;;;;12.27;5.97;;;14.00;95.40;;;;;;5050267;28;20796;-66
2021/07/02 04:53:20;;;;;;;7.93;4.75;;;14.00;95.40;;;;;;5049286;28;20025;-66
2021/07/02 04:55:45;;;;;;;11.18;5.65;;;14.00;95.40;;;;;;5050187;28;20044;-63
2021/07/02 04:58:11;;;;;;;10.13;5.90;;;14.00;95.40;;;;;;5049462;28;20029;-66
2021/07/02 05:00:38;;;;;;;10.35;5.55;;;14.00;95.40;;;;;;5051358;28;20032;-66
2021/07/02 05:03:04;;;;;;;10.30;5.35;;;14.00;95.40;;;;;;5049942;28;20021;-65
2021/07/02 05:05:30;;;;;;;8.73;5.53;;;14.10;95.40;;;;;;5032472;28;20032;-64
2021/07/02 05:07:55;;;;;;;10.73;5.60;;;14.10;95.40;;;;;;5050079;28;20119;-66
2021/07/02 05:10:21;;;;;;;6.82;4.93;;;14.10;95.50;;;;;;5050404;28;20028;-66
2021/07/02 05:12:46;;;;;;;9.32;5.75;;;14.10;95.40;;;;;;5049776;28;20454;-66
2021/07/02 05:15:12;;;;;;;9.10;5.78;;;14.10;95.40;;;;;;5050092;28;20035;-66
2021/07/02 05:17:39;;;;;;;10.02;6.55;;;14.20;95.40;;;;;;5028493;28;20465;-63
2021/07/02 05:20:06;;;;;;;9.85;5.55;;;14.20;95.40;;;;;;5033182;28;20384;-66
2021/07/02 05:22:31;;;;;;;10.93;5.97;;;14.20;95.40;;;;;;5042485;28;20091;-67
2021/07/02 05:24:57;;;;;;;7.53;5.18;;;14.20;95.30;;;;;;5030694;28;20025;-67
2021/07/02 05:27:23;;;;;;;9.18;5.20;;;14.30;95.20;;;;;;5030358;28;20060;-66
2021/07/02 05:29:49;;;;;;;10.20;5.25;;;14.30;95.20;;;;;;5020967;28;20473;-66
2021/07/02 05:32:14;;;;;;;8.35;5.20;;;14.30;95.20;;;;;;5049832;28;20013;-64
2021/07/02 05:34:40;;;;;;;7.82;5.68;;;14.40;95.20;;;;;;5031939;28;20021;-66
2021/07/02 05:37:05;;;;;;;9.93;5.90;;;14.40;95.10;;;;;;5032191;28;20033;-67
2021/07/02 05:39:31;;;;;;;10.38;5.65;;;14.50;95.00;;;;;;5050699;28;20040;-66
2021/07/02 05:41:57;;;;;;;7.50;5.07;;;14.50;95.00;;;;;;5049987;28;20120;-65
2021/07/02 05:44:23;;;;;;;7.40;5.75;;;14.60;95.00;;;;;;5050420;28;20035;-63
2021/07/02 05:46:48;;;;;;;10.55;5.30;;;14.60;95.00;;;;;;5050055;28;20025;-66
2021/07/02 05:49:15;;;;;;;5.97;4.72;;;14.70;94.90;;;;;;5041597;28;20346;-66
2021/07/02 05:51:41;;;;;;;7.45;5.25;;;14.70;94.90;;;;;;5031214;28;20029;-64
2021/07/02 05:54:08;;;;;;;9.43;5.60;;;14.80;94.80;;;;;;5028621;28;20060;-66
2021/07/02 05:56:34;;;;;;;8.02;4.90;;;14.80;94.70;;;;;;5028926;28;20017;-66
2021/07/02 05:59:00;;;;;;;11.10;6.05;;;14.90;94.60;;;;;;5049299;28;20350;-66
2021/07/02 06:01:26;;;;;;;7.35;4.90;;;15.00;94.50;;;;;;5049475;28;20021;-66
2021/07/02 06:03:52;;;;;;;7.05;4.88;;;15.10;94.40;;;;;;5032446;28;20031;-66
2021/07/02 06:06:22;;;;;;;7.55;4.60;;;15.30;94.30;;;;;;5049835;28;20420;-66
2021/07/02 06:08:49;;;;;;;9.90;4.72;;;15.40;94.20;;;;;;5049525;28;20094;-64
2021/07/02 06:11:15;;;;;;;8.52;4.78;;;15.50;94.20;;;;;;5050663;28;20025;-66
2021/07/02 06:13:41;;;;;;;6.78;4.85;;;15.60;94.00;;;;;;5049737;28;20168;-66
2021/07/02 06:16:06;;;;;;;8.18;4.75;;;15.60;93.90;;;;;;5049680;28;20405;-66
2021/07/02 06:18:32;;;;;;;12.98;5.18;;;15.70;93.80;;;;;;5048667;28;20029;-66
2021/07/02 06:20:58;;;;;;;7.85;4.72;;;15.70;93.70;;;;;;5042013;28;20591;-65
2021/07/02 06:23:24;;;;;;;22.60;6.10;;;15.80;93.70;;;;;;5023651;28;20022;-64
2021/07/02 06:25:50;;;;;;;27.58;6.40;;;15.90;93.60;;;;;;5031757;28;20032;-65
2021/07/02 06:28:17;;;;;;;8.27;4.80;;;15.90;93.50;;;;;;5049970;28;20147;-64
2021/07/02 06:30:43;;;;;;;8.68;4.57;;;15.90;93.30;;;;;;5049726;28;20033;-65
2021/07/02 06:33:10;;;;;;;10.13;5.13;;;15.90;93.30;;;;;;5049492;28;20477;-66
2021/07/02 06:35:36;;;;;;;16.55;5.43;;;15.90;93.30;;;;;;5050042;28;20033;-64
2021/07/02 06:38:02;;;;;;;27.13;6.28;;;15.90;93.20;;;;;;5049475;28;20592;-66
2021/07/02 06:40:28;;;;;;;12.70;5.25;;;15.90;93.10;;;;;;5049893;28;20029;-63
2021/07/02 06:42:54;;;;;;;9.15;4.78;;;16.00;93.10;;;;;;5050132;28;20050;-66
2021/07/02 06:45:20;;;;;;;22.60;6.18;;;16.00;93.10;;;;;;5049020;28;20029;-66
2021/07/02 06:47:49;;;;;;;7.82;4.43;;;16.10;93.10;;;;;;5049539;28;20550;-67
2021/07/02 06:50:15;;;;;;;6.35;4.88;;;16.10;92.90;;;;;;5049059;28;20032;-66
2021/07/02 06:52:40;;;;;;;14.55;5.30;;;16.30;92.90;;;;;;5049229;28;20025;-66
2021/07/02 06:55:06;;;;;;;6.97;4.70;;;16.30;92.70;;;;;;5048301;28;20170;-67
2021/07/02 06:57:32;;;;;;;24.63;5.53;;;16.40;92.60;;;;;;5043556;28;20033;-66
2021/07/02 07:00:02;;;;;;;32.33;7.22;;;16.60;92.50;;;;;;5035465;28;20032;-66
2021/07/02 07:02:28;;;;;;;13.70;4.63;;;16.70;92.30;;;;;;5045313;28;20024;-66
2021/07/02 07:04:54;;;;;;;7.50;4.78;;;16.90;92.10;;;;;;5049653;28;20126;-66
2021/07/02 07:07:20;;;;;;;40.00;7.32;;;17.20;91.90;;;;;;5053938;28;20028;-66
2021/07/02 07:09:45;;;;;;;15.85;4.65;;;17.40;91.70;;;;;;5053334;28;20025;-66
2021/07/02 07:12:11;;;;;;;29.55;6.45;;;17.50;91.50;;;;;;5053698;28;20033;-65
2021/07/02 07:14:37;;;;;;;21.35;5.43;;;17.50;91.20;;;;;;5052293;28;20029;-64
2021/07/02 07:17:04;;;;;;;5.70;4.03;;;17.50;91.10;;;;;;5053686;28;20052;-66
2021/07/02 07:19:30;;;;;;;6.95;4.50;;;17.60;91.10;;;;;;5049660;28;20048;-66
2021/07/02 07:21:56;;;;;;;30.67;7.25;;;17.70;90.90;;;;;;5054261;28;20040;-66
2021/07/02 07:24:22;;;;;;;28.63;5.72;;;18.00;90.90;;;;;;5055003;28;20103;-65
2021/07/02 07:26:48;;;;;;;6.38;4.50;;;18.10;90.80;;;;;;5052587;28;20039;-66
2021/07/02 07:29:15;;;;;;;5.22;4.57;;;18.20;90.30;;;;;;5035638;28;20089;-66
2021/07/02 07:31:40;;;;;;;5.32;4.00;;;18.20;90.00;;;;;;5020343;28;20024;-66
2021/07/02 07:34:06;;;;;;;6.13;4.15;;;18.40;90.00;;;;;;5053250;28;20033;-66
2021/07/02 07:36:32;;;;;;;6.57;4.95;;;18.70;89.90;;;;;;5052024;28;20056;-66
2021/07/02 07:38:58;;;;;;;6.88;4.13;;;18.70;89.80;;;;;;5053163;28;20515;-65
2021/07/02 07:41:24;;;;;;;5.13;4.10;;;18.90;89.20;;;;;;5052657;28;20029;-64
2021/07/02 07:43:51;;;;;;;7.30;4.10;;;19.00;88.70;;;;;;5035265;28;20021;-66
2021/07/02 07:46:17;;;;;;;6.63;4.10;;;18.90;87.80;;;;;;5052002;28;20497;-66
2021/07/02 07:48:43;;;;;;;5.28;4.40;;;19.00;87.40;;;;;;5052384;28;20036;-66
2021/07/02 07:53:52;;;;;;;6.25;4.38;;;19.00;86.30;;;;;;5052496;28;20025;-66
2021/07/02 07:56:17;;;;;;;5.93;4.57;;;19.20;85.60;;;;;;5051901;28;20422;-66
2021/07/02 07:58:43;;;;;;;4.65;4.03;;;19.50;85.30;;;;;;5043713;28;20021;-66
2021/07/02 08:01:09;;;;;;;5.03;4.32;;;19.70;84.20;;;;;;5048500;28;20090;-65
2021/07/02 08:03:35;;;;;;;5.97;4.15;;;19.90;83.70;;;;;;5052306;28;20017;-65
2021/07/02 08:06:00;;;;;;;5.88;4.55;;;20.10;83.30;;;;;;5051530;28;20070;-65
2021/07/02 08:08:26;;;;;;;6.50;4.72;;;20.30;82.60;;;;;;5052173;28;20552;-66
2021/07/02 08:10:52;;;;;;;5.47;4.05;;;20.60;81.70;;;;;;5052660;28;20033;-66
2021/07/02 08:13:18;;;;;;;5.60;4.47;;;20.50;81.50;;;;;;5052576;28;20028;-67
2021/07/02 08:15:44;;;;;;;5.45;3.85;;;20.70;81.00;;;;;;5050852;28;20025;-65
2021/07/02 08:18:09;;;;;;;6.90;4.47;;;20.70;80.40;;;;;;5052198;28;20021;-67
2021/07/02 08:20:35;;;;;;;6.20;4.30;;;20.40;81.40;;;;;;5051256;28;20052;-65
2021/07/02 08:23:00;;;;;;;5.75;4.07;;;20.10;81.70;;;;;;5037046;28;20041;-66
2021/07/02 08:25:26;;;;;;;27.90;5.90;;;19.90;81.90;;;;;;5030926;28;20033;-66
2021/07/02 08:30:36;;;;;;;6.28;4.13;;;20.00;81.80;;;;;;5043109;28;20036;-65
2021/07/02 08:33:01;;;;;;;9.95;4.28;;;20.10;81.50;;;;;;5052089;28;20029;-66
2021/07/02 08:35:27;;;;;;;25.58;5.53;;;20.00;81.80;;;;;;5050652;28;20033;-63
2021/07/02 08:37:53;;;;;;;11.30;4.80;;;19.90;81.50;;;;;;5051319;28;20025;-66
2021/07/02 08:40:22;;;;;;;27.15;5.07;;;20.50;79.40;;;;;;5034137;28;20032;-66
2021/07/02 08:42:49;;;;;;;34.50;6.40;;;20.90;77.40;;;;;;5051623;28;20530;-66
2021/07/02 08:45:15;;;;;;;10.60;4.22;;;20.50;78.70;;;;;;5032802;28;20025;-66
2021/07/02 08:47:42;;;;;;;11.27;4.03;;;20.90;78.60;;;;;;5051483;28;20385;-66
2021/07/02 08:50:09;;;;;;;9.95;4.32;;;21.40;77.50;;;;;;5051778;28;20033;-65
2021/07/02 08:52:38;;;;;;;5.30;3.40;;;22.30;74.00;;;;;;5051335;28;20017;-66
2021/07/02 08:55:06;;;;;;;3.08;2.78;;;23.20;73.00;;;;;;5050569;28;20376;-66
2021/07/02 08:57:32;;;;;;;5.68;3.55;;;24.00;71.30;;;;;;5051315;28;20064;-65
2021/07/02 09:00:01;;;;;;;4.53;3.35;;;24.90;68.90;;;;;;5038612;28;20052;-67
2021/07/02 09:02:32;;;;;;;4.47;3.75;;;25.00;67.10;;;;;;5051162;28;20032;-66
2021/07/02 09:05:18;;;;;;;7.53;3.95;;;24.80;67.00;;;;;;5050671;28;20677;-67
2021/07/02 09:07:44;;;;;;;6.30;3.85;;;24.00;67.10;;;;;;5033146;28;20397;-66
2021/07/02 09:10:09;;;;;;;7.10;4.00;;;23.50;67.40;;;;;;5051278;28;20043;-66
2021/07/02 09:12:35;;;;;;;6.32;3.83;;;22.70;69.60;;;;;;5051363;28;20057;-66
2021/07/02 09:15:15;;;;;;;4.03;3.63;;;21.90;71.10;;;;;;5049983;28;20028;-66
2021/07/02 09:17:49;;;;;;;7.40;4.10;;;21.30;71.10;;;;;;5051070;28;20044;-65
2021/07/02 09:20:19;;;;;;;5.40;4.10;;;20.80;71.50;;;;;;5050577;28;20095;-66
2021/07/02 09:23:04;;;;;;;6.32;4.25;;;20.40;72.60;;;;;;5051063;28;20100;-66
2021/07/02 09:25:31;;;;;;;4.43;3.85;;;20.10;72.90;;;;;;5029998;28;20033;-66
2021/07/02 09:28:09;;;;;;;7.15;4.13;;;20.90;71.80;;;;;;5030580;28;20639;-65
2021/07/02 09:30:40;;;;;;;4.43;3.50;;;22.60;68.40;;;;;;5014167;28;20014;-67
2021/07/02 09:33:08;;;;;;;4.57;3.40;;;24.00;65.30;;;;;;5026678;28;20037;-66
2021/07/02 09:35:46;;;;;;;5.63;3.33;;;25.10;62.70;;;;;;5049835;28;20029;-67
2021/07/02 09:38:12;;;;;;;5.90;3.65;;;26.20;60.60;;;;;;5050609;28;20032;-66
2021/07/02 09:40:38;;;;;;;5.75;3.60;;;27.00;60.20;;;;;;5050506;28;20056;-66
2021/07/02 09:43:15;;;;;;;6.13;3.80;;;26.50;59.80;;;;;;5050967;28;20156;-66
2021/07/02 09:45:53;;;;;;;5.97;3.55;;;25.00;60.70;;;;;;5049763;28;20021;-64
2021/07/02 09:48:26;;;;;;;6.22;3.97;;;23.70;63.20;;;;;;5050647;28;20104;-66
2021/07/02 09:50:56;;;;;;;6.45;3.53;;;23.50;64.30;;;;;;5030837;28;20033;-66
2021/07/02 09:53:25;;;;;;;6.47;3.83;;;24.60;61.80;;;;;;5030637;28;20061;-66
2021/07/02 09:55:56;;;;;;;7.57;3.75;;;25.30;60.70;;;;;;5029969;28;20082;-66
2021/07/02 09:58:28;;;;;;;5.93;3.35;;;25.70;58.70;;;;;;5039336;28;20064;-66
2021/07/02 10:00:55;;;;;;;6.78;2.92;;;26.10;58.50;;;;;;5044152;28;20554;-66
2021/07/02 10:03:29;;;;;;;2.80;2.58;;;26.30;57.60;;;;;;5050259;28;20032;-66
2021/07/02 10:05:57;;;;;;;3.35;3.00;;;26.30;56.40;;;;;;5050413;28;20409;-66
2021/07/02 10:08:27;;;;;;;4.68;2.97;;;26.30;58.10;;;;;;5050559;28;20029;-66
2021/07/02 10:10:54;;;;;;;3.83;3.08;;;26.40;57.50;;;;;;5050957;28;20020;-67
2021/07/02 10:13:23;;;;;;;3.45;2.78;;;26.50;57.50;;;;;;5050505;28;20021;-66
2021/07/02 10:15:50;;;;;;;3.15;2.95;;;26.40;58.40;;;;;;5031679;28;20045;-66
2021/07/02 10:18:16;;;;;;;5.43;3.50;;;26.40;58.10;;;;;;5031850;28;20031;-66
2021/07/02 10:20:43;;;;;;;8.20;3.03;;;25.90;58.50;;;;;;5050268;28;20096;-66
2021/07/02 10:23:11;;;;;;;5.15;3.65;;;25.50;59.20;;;;;;5050441;28;20104;-66
2021/07/02 10:25:40;;;;;;;4.65;3.28;;;25.10;59.40;;;;;;5049138;28;20036;-66
2021/07/02 10:28:06;;;;;;;4.22;3.17;;;24.70;59.10;;;;;;5050246;28;20032;-66
2021/07/02 10:30:32;;;;;;;7.80;4.22;;;24.30;59.60;;;;;;5048175;28;20033;-66
2021/07/02 10:32:59;;;;;;;5.15;3.80;;;24.20;60.80;;;;;;5050501;28;20465;-66
2021/07/02 10:35:29;;;;;;;6.72;3.80;;;24.00;60.80;;;;;;5049035;28;20029;-66
2021/07/02 10:37:57;;;;;;;4.45;3.35;;;24.00;61.40;;;;;;5050408;28;20021;-66
2021/07/02 10:40:33;;;;;;;4.43;3.13;;;24.00;60.60;;;;;;5051622;28;20469;-66
2021/07/02 10:43:07;;;;;;;6.85;2.85;;;23.80;60.20;;;;;;5053848;28;20104;-66
2021/07/02 10:45:33;;;;;;;6.97;5.57;;;23.70;60.30;;;;;;5034924;28;20362;-66
2021/07/02 10:47:58;;;;;;;5.07;2.88;;;23.60;60.80;;;;;;5054065;28;20059;-66
2021/07/02 10:50:44;;;;;;;5.07;3.65;;;23.50;61.20;;;;;;5054088;28;20037;-66
2021/07/02 10:53:29;;;;;;;5.88;3.88;;;23.50;59.80;;;;;;5035952;28;20025;-66
2021/07/02 10:55:56;;;;;;;5.50;3.90;;;23.50;60.50;;;;;;5052884;28;20033;-66
2021/07/02 10:58:22;;;;;;;5.43;3.60;;;23.40;60.20;;;;;;5047465;28;20072;-66
2021/07/02 11:01:10;;;;;;;5.03;3.55;;;23.30;60.80;;;;;;5046936;28;20028;-66
2021/07/02 11:03:37;;;;;;;4.22;3.50;;;23.40;61.60;;;;;;5053359;28;20481;-66
2021/07/02 11:06:37;;;;;;;4.10;3.70;;;23.50;61.10;;;;;;5053117;28;20039;-66
2021/07/02 11:09:03;;;;;;;7.35;3.58;;;23.50;59.60;;;;;;5053306;28;20032;-66
2021/07/02 11:12:08;;;;;;;6.85;3.60;;;23.30;59.90;;;;;;5053612;28;20414;-66
2021/07/02 11:17:23;;;;;;;3.15;2.72;;;23.00;60.80;;;;;;5034288;28;20101;-66
2021/07/02 11:22:58;;;;;;;4.18;3.40;;;23.20;60.20;;;;;;5052807;28;20343;-66
2021/07/02 11:25:31;;;;;;;6.15;4.07;;;23.30;61.20;;;;;;5052019;28;20420;-66
2021/07/02 11:28:00;;;;;;;4.43;3.17;;;23.40;62.20;;;;;;5033616;28;20017;-66
2021/07/02 11:30:34;;;;;;;8.13;3.17;;;23.50;59.80;;;;;;5026642;28;20108;-66
2021/07/02 11:33:12;;;;;;;5.65;4.30;;;23.40;59.10;;;;;;5053383;28;20447;-66
2021/07/02 11:35:42;;;;;;;4.80;3.38;;;23.30;58.50;;;;;;5033876;28;20098;-66
2021/07/02 11:38:11;;;;;;;4.88;2.92;;;23.30;59.60;;;;;;5053028;28;20500;-66
2021/07/02 11:40:57;;;;;;;6.40;3.28;;;23.30;58.50;;;;;;5052712;28;20071;-66
2021/07/02 11:43:29;;;;;;;4.85;3.20;;;23.30;57.60;;;;;;5053151;28;20026;-66
2021/07/02 11:45:57;;;;;;;7.22;3.50;;;23.20;58.10;;;;;;5051822;28;20036;-66
2021/07/02 11:48:25;;;;;;;4.05;3.20;;;23.20;58.30;;;;;;5052952;28;20108;-66
2021/07/02 11:50:53;;;;;;;6.53;4.45;;;23.30;58.70;;;;;;5051884;28;20559;-66
2021/07/02 11:53:41;;;;;;;4.95;3.60;;;23.40;58.40;;;;;;5052680;28;20489;-66
2021/07/02 11:56:17;;;;;;;4.10;3.35;;;23.50;57.50;;;;;;5051144;28;20031;-65
2021/07/02 11:58:45;;;;;;;5.10;3.33;;;23.50;57.50;;;;;;5048249;28;20017;-67
2021/07/02 12:01:14;;;;;;;4.30;3.17;;;23.50;58.30;;;;;;5048362;28;20489;-65
2021/07/02 12:03:50;;;;;;;5.32;3.40;;;23.50;57.40;;;;;;5049845;28;20393;-65
2021/07/02 12:06:32;;;;;;;4.85;3.15;;;23.50;56.70;;;;;;5051652;28;20435;-65
2021/07/02 12:09:07;;;;;;;3.50;3.17;;;23.50;57.20;;;;;;5034734;28;20025;-65
2021/07/02 12:11:32;;;;;;;4.47;3.63;;;23.60;56.80;;;;;;5052604;28;20021;-65
2021/07/02 12:13:58;;;;;;;4.10;3.40;;;23.60;57.10;;;;;;5052294;28;20032;-65
2021/07/02 12:16:35;;;;;;;3.38;2.80;;;23.60;56.80;;;;;;5051184;28;20036;-65
2021/07/02 12:19:02;;;;;;;6.00;3.30;;;23.80;57.10;;;;;;5051665;28;20017;-65
2021/07/02 12:21:29;;;;;;;5.03;3.40;;;23.80;56.60;;;;;;5041456;28;20026;-65
2021/07/02 12:23:57;;;;;;;5.10;3.75;;;23.90;56.00;;;;;;5014109;28;20112;-65
2021/07/02 12:26:26;;;;;;;4.80;3.90;;;24.00;54.60;;;;;;5031443;28;20025;-66
2021/07/02 12:29:02;;;;;;;5.68;3.58;;;24.00;54.70;;;;;;5047691;28;20049;-66
2021/07/02 12:31:55;;;;;;;5.20;3.42;;;23.90;54.60;;;;;;5032025;28;20033;-66
2021/07/02 12:34:26;;;;;;;9.98;5.25;;;23.90;55.30;;;;;;5028545;28;20041;-66
2021/07/02 12:37:08;;;;;;;5.57;3.95;;;23.80;54.80;;;;;;5031282;28;20108;-66
2021/07/02 12:39:42;;;;;;;9.70;3.92;;;23.70;55.90;;;;;;5031704;28;20026;-66
2021/07/02 12:42:13;;;;;;;7.28;3.80;;;23.50;56.60;;;;;;5042955;28;20033;-66
2021/07/02 12:44:44;;;;;;;4.78;3.78;;;23.40;56.50;;;;;;5050726;28;20025;-66
2021/07/02 12:47:11;;;;;;;6.10;4.20;;;23.30;57.10;;;;;;5051688;28;20103;-66
2021/07/02 12:50:03;;;;;;;3.97;3.50;;;23.30;57.10;;;;;;5051922;28;20025;-66
2021/07/02 12:55:15;;;;;;;6.65;3.42;;;23.10;57.10;;;;;;5050828;28;20048;-67
2021/07/02 12:57:50;;;;;;;4.05;3.58;;;23.10;57.50;;;;;;5033810;28;20029;-66
2021/07/02 13:00:18;;;;;;;4.57;3.63;;;23.00;57.00;;;;;;5037639;28;20056;-66
2021/07/02 13:02:52;;;;;;;5.65;3.85;;;22.90;56.60;;;;;;5030967;28;20108;-67